sensor_id;sensor_type;location;lat;lon;timestamp;temperature;humidity
39045;DHT22;52192;52.002;5.956;2023-05-24T00:02:23;11.80;66.70
39045;DHT22;52192;52.002;5.956;2023-05-24T00:04:51;11.80;66.80
39045;DHT22;52192;52.002;5.956;2023-05-24T00:07:17;11.70;66.90
39045;DHT22;52192;52.002;5.956;2023-05-24T00:09:43;11.70;67.00
39045;DHT22;52192;52.002;5.956;2023-05-24T00:12:09;11.70;67.20
39045;DHT22;52192;52.002;5.956;2023-05-24T00:14:35;11.70;67.20
39045;DHT22;52192;52.002;5.956;2023-05-24T00:17:00;11.60;67.30
39045;DHT22;52192;52.002;5.956;2023-05-24T00:19:26;11.60;67.40
39045;DHT22;52192;52.002;5.956;2023-05-24T00:21:52;11.60;67.40
39045;DHT22;52192;52.002;5.956;2023-05-24T00:24:18;11.50;67.30
39045;DHT22;52192;52.002;5.956;2023-05-24T00:26:44;11.50;67.50
39045;DHT22;52192;52.002;5.956;2023-05-24T00:29:10;11.50;67.60
39045;DHT22;52192;52.002;5.956;2023-05-24T00:31:35;11.40;67.70
39045;DHT22;52192;52.002;5.956;2023-05-24T00:34:01;11.40;67.70
39045;DHT22;52192;52.002;5.956;2023-05-24T00:36:27;11.40;67.70
39045;DHT22;52192;52.002;5.956;2023-05-24T00:38:52;11.40;67.80
39045;DHT22;52192;52.002;5.956;2023-05-24T00:41:18;11.30;67.80
39045;DHT22;52192;52.002;5.956;2023-05-24T00:43:44;11.30;68.00
39045;DHT22;52192;52.002;5.956;2023-05-24T00:46:20;11.20;68.20
39045;DHT22;52192;52.002;5.956;2023-05-24T00:48:48;11.20;68.30
39045;DHT22;52192;52.002;5.956;2023-05-24T00:51:14;11.20;68.40
39045;DHT22;52192;52.002;5.956;2023-05-24T00:53:44;11.10;68.30
39045;DHT22;52192;52.002;5.956;2023-05-24T00:56:12;11.10;68.30
39045;DHT22;52192;52.002;5.956;2023-05-24T00:58:38;11.00;68.20
39045;DHT22;52192;52.002;5.956;2023-05-24T01:01:04;11.00;68.20
39045;DHT22;52192;52.002;5.956;2023-05-24T01:03:30;10.90;68.30
39045;DHT22;52192;52.002;5.956;2023-05-24T01:06:02;11.00;68.40
39045;DHT22;52192;52.002;5.956;2023-05-24T01:08:56;11.00;68.40
39045;DHT22;52192;52.002;5.956;2023-05-24T01:14:28;10.80;68.60
39045;DHT22;52192;52.002;5.956;2023-05-24T01:17:05;10.80;68.80
39045;DHT22;52192;52.002;5.956;2023-05-24T01:19:50;10.70;68.70
39045;DHT22;52192;52.002;5.956;2023-05-24T01:22:37;10.70;68.70
39045;DHT22;52192;52.002;5.956;2023-05-24T01:26:07;10.60;68.70
39045;DHT22;52192;52.002;5.956;2023-05-24T01:28:13;10.60;68.70
39045;DHT22;52192;52.002;5.956;2023-05-24T01:30:41;10.50;68.90
39045;DHT22;52192;52.002;5.956;2023-05-24T01:33:07;10.50;68.90
39045;DHT22;52192;52.002;5.956;2023-05-24T01:35:33;10.40;68.90
39045;DHT22;52192;52.002;5.956;2023-05-24T01:38:07;10.40;68.90
39045;DHT22;52192;52.002;5.956;2023-05-24T01:40:34;10.40;69.00
39045;DHT22;52192;52.002;5.956;2023-05-24T01:43:47;10.40;69.00
39045;DHT22;52192;52.002;5.956;2023-05-24T01:46:16;10.40;68.90
39045;DHT22;52192;52.002;5.956;2023-05-24T01:49:05;10.30;69.10
39045;DHT22;52192;52.002;5.956;2023-05-24T01:51:43;10.30;69.10
39045;DHT22;52192;52.002;5.956;2023-05-24T01:54:12;10.20;69.40
39045;DHT22;52192;52.002;5.956;2023-05-24T01:56:40;10.20;69.60
39045;DHT22;52192;52.002;5.956;2023-05-24T01:59:08;10.20;69.50
39045;DHT22;52192;52.002;5.956;2023-05-24T02:01:34;10.20;69.60
39045;DHT22;52192;52.002;5.956;2023-05-24T02:04:00;10.20;69.60
39045;DHT22;52192;52.002;5.956;2023-05-24T02:06:27;10.20;69.70
39045;DHT22;52192;52.002;5.956;2023-05-24T02:08:52;10.20;69.70
39045;DHT22;52192;52.002;5.956;2023-05-24T02:11:18;10.20;69.80
39045;DHT22;52192;52.002;5.956;2023-05-24T02:13:43;10.20;70.00
39045;DHT22;52192;52.002;5.956;2023-05-24T02:16:09;10.20;70.00
39045;DHT22;52192;52.002;5.956;2023-05-24T02:18:35;10.20;70.10
39045;DHT22;52192;52.002;5.956;2023-05-24T02:21:01;10.20;70.30
39045;DHT22;52192;52.002;5.956;2023-05-24T02:23:27;10.20;70.40
39045;DHT22;52192;52.002;5.956;2023-05-24T02:25:54;10.20;70.50
39045;DHT22;52192;52.002;5.956;2023-05-24T02:28:19;10.20;70.40
39045;DHT22;52192;52.002;5.956;2023-05-24T02:30:45;10.20;70.30
39045;DHT22;52192;52.002;5.956;2023-05-24T02:33:11;10.10;70.40
39045;DHT22;52192;52.002;5.956;2023-05-24T02:35:37;10.20;70.70
39045;DHT22;52192;52.002;5.956;2023-05-24T02:38:02;10.20;70.80
39045;DHT22;52192;52.002;5.956;2023-05-24T02:40:31;10.10;70.90
39045;DHT22;52192;52.002;5.956;2023-05-24T02:42:56;10.10;70.80
39045;DHT22;52192;52.002;5.956;2023-05-24T02:45:22;10.10;70.70
39045;DHT22;52192;52.002;5.956;2023-05-24T02:47:48;10.10;70.70
39045;DHT22;52192;52.002;5.956;2023-05-24T02:50:14;10.10;70.80
39045;DHT22;52192;52.002;5.956;2023-05-24T02:52:39;10.10;70.70
39045;DHT22;52192;52.002;5.956;2023-05-24T02:55:06;10.00;70.80
39045;DHT22;52192;52.002;5.956;2023-05-24T02:57:31;10.00;70.80
39045;DHT22;52192;52.002;5.956;2023-05-24T02:59:58;10.00;70.90
39045;DHT22;52192;52.002;5.956;2023-05-24T03:02:24;10.00;71.00
39045;DHT22;52192;52.002;5.956;2023-05-24T03:04:53;10.00;70.90
39045;DHT22;52192;52.002;5.956;2023-05-24T03:07:18;10.00;71.00
39045;DHT22;52192;52.002;5.956;2023-05-24T03:09:44;10.00;71.00
39045;DHT22;52192;52.002;5.956;2023-05-24T03:12:10;10.00;71.00
39045;DHT22;52192;52.002;5.956;2023-05-24T03:14:35;9.90;70.90
39045;DHT22;52192;52.002;5.956;2023-05-24T03:17:01;9.90;70.90
39045;DHT22;52192;52.002;5.956;2023-05-24T03:19:27;9.90;71.00
39045;DHT22;52192;52.002;5.956;2023-05-24T03:21:52;9.80;71.00
39045;DHT22;52192;52.002;5.956;2023-05-24T03:24:18;9.80;71.00
39045;DHT22;52192;52.002;5.956;2023-05-24T03:26:45;9.80;70.90
39045;DHT22;52192;52.002;5.956;2023-05-24T03:29:10;9.80;71.00
39045;DHT22;52192;52.002;5.956;2023-05-24T03:31:36;9.80;71.00
39045;DHT22;52192;52.002;5.956;2023-05-24T03:34:02;9.70;71.00
39045;DHT22;52192;52.002;5.956;2023-05-24T03:36:31;9.70;71.10
39045;DHT22;52192;52.002;5.956;2023-05-24T03:38:57;9.70;71.20
39045;DHT22;52192;52.002;5.956;2023-05-24T03:41:23;9.70;71.30
39045;DHT22;52192;52.002;5.956;2023-05-24T03:43:50;9.70;71.40
39045;DHT22;52192;52.002;5.956;2023-05-24T03:46:16;9.70;71.50
39045;DHT22;52192;52.002;5.956;2023-05-24T03:48:42;9.70;71.50
39045;DHT22;52192;52.002;5.956;2023-05-24T03:51:07;9.60;71.50
39045;DHT22;52192;52.002;5.956;2023-05-24T03:53:33;9.60;71.60
39045;DHT22;52192;52.002;5.956;2023-05-24T03:55:59;9.60;71.70
39045;DHT22;52192;52.002;5.956;2023-05-24T03:58:25;9.60;71.80
39045;DHT22;52192;52.002;5.956;2023-05-24T04:00:51;9.60;71.90
39045;DHT22;52192;52.002;5.956;2023-05-24T04:03:17;9.70;72.10
39045;DHT22;52192;52.002;5.956;2023-05-24T04:05:44;9.70;72.00
39045;DHT22;52192;52.002;5.956;2023-05-24T04:08:10;9.70;72.00
39045;DHT22;52192;52.002;5.956;2023-05-24T04:10:37;9.70;72.30
39045;DHT22;52192;52.002;5.956;2023-05-24T04:13:02;9.70;72.80
39045;DHT22;52192;52.002;5.956;2023-05-24T04:15:28;9.80;73.10
39045;DHT22;52192;52.002;5.956;2023-05-24T04:17:54;9.90;73.20
39045;DHT22;52192;52.002;5.956;2023-05-24T04:20:20;9.90;73.10
39045;DHT22;52192;52.002;5.956;2023-05-24T04:22:52;10.00;73.30
39045;DHT22;52192;52.002;5.956;2023-05-24T04:25:18;10.00;73.30
39045;DHT22;52192;52.002;5.956;2023-05-24T04:27:44;10.10;73.40
39045;DHT22;52192;52.002;5.956;2023-05-24T04:30:13;10.10;73.30
39045;DHT22;52192;52.002;5.956;2023-05-24T04:32:41;10.20;73.50
39045;DHT22;52192;52.002;5.956;2023-05-24T04:35:09;10.20;73.70
39045;DHT22;52192;52.002;5.956;2023-05-24T04:37:35;10.30;73.90
39045;DHT22;52192;52.002;5.956;2023-05-24T04:40:00;10.40;74.20
39045;DHT22;52192;52.002;5.956;2023-05-24T04:42:28;10.40;75.00
39045;DHT22;52192;52.002;5.956;2023-05-24T04:44:57;10.60;74.50
39045;DHT22;52192;52.002;5.956;2023-05-24T04:47:23;10.70;74.20
39045;DHT22;52192;52.002;5.956;2023-05-24T04:49:49;10.80;74.10
39045;DHT22;52192;52.002;5.956;2023-05-24T04:52:15;10.80;74.10
39045;DHT22;52192;52.002;5.956;2023-05-24T04:54:41;10.90;74.30
39045;DHT22;52192;52.002;5.956;2023-05-24T04:57:07;10.90;74.30
39045;DHT22;52192;52.002;5.956;2023-05-24T04:59:33;11.00;74.40
39045;DHT22;52192;52.002;5.956;2023-05-24T05:01:59;11.00;74.30
39045;DHT22;52192;52.002;5.956;2023-05-24T05:04:24;11.10;74.40
39045;DHT22;52192;52.002;5.956;2023-05-24T05:06:50;11.20;74.50
39045;DHT22;52192;52.002;5.956;2023-05-24T05:09:16;11.20;74.20
39045;DHT22;52192;52.002;5.956;2023-05-24T05:11:44;11.20;74.70
39045;DHT22;52192;52.002;5.956;2023-05-24T05:14:10;11.20;74.60
39045;DHT22;52192;52.002;5.956;2023-05-24T05:16:36;11.30;74.70
39045;DHT22;52192;52.002;5.956;2023-05-24T05:19:03;11.40;74.40
39045;DHT22;52192;52.002;5.956;2023-05-24T05:21:29;11.50;74.40
39045;DHT22;52192;52.002;5.956;2023-05-24T05:24:01;11.50;74.20
39045;DHT22;52192;52.002;5.956;2023-05-24T05:26:27;11.60;74.10
39045;DHT22;52192;52.002;5.956;2023-05-24T05:28:53;11.60;74.40
39045;DHT22;52192;52.002;5.956;2023-05-24T05:31:21;11.60;74.40
39045;DHT22;52192;52.002;5.956;2023-05-24T05:33:47;11.70;74.30
39045;DHT22;52192;52.002;5.956;2023-05-24T05:36:13;11.70;74.30
39045;DHT22;52192;52.002;5.956;2023-05-24T05:38:39;11.80;74.40
39045;DHT22;52192;52.002;5.956;2023-05-24T05:41:04;11.80;74.30
39045;DHT22;52192;52.002;5.956;2023-05-24T05:43:30;11.90;74.30
39045;DHT22;52192;52.002;5.956;2023-05-24T05:45:56;11.90;74.20
39045;DHT22;52192;52.002;5.956;2023-05-24T05:48:22;12.00;74.20
39045;DHT22;52192;52.002;5.956;2023-05-24T05:50:47;12.00;74.20
39045;DHT22;52192;52.002;5.956;2023-05-24T05:53:15;12.10;74.10
39045;DHT22;52192;52.002;5.956;2023-05-24T05:55:40;12.10;74.00
39045;DHT22;52192;52.002;5.956;2023-05-24T05:58:06;12.20;73.90
39045;DHT22;52192;52.002;5.956;2023-05-24T06:00:32;12.20;73.80
39045;DHT22;52192;52.002;5.956;2023-05-24T06:02:57;12.20;73.80
39045;DHT22;52192;52.002;5.956;2023-05-24T06:05:23;12.30;73.80
39045;DHT22;52192;52.002;5.956;2023-05-24T06:07:49;12.40;73.90
39045;DHT22;52192;52.002;5.956;2023-05-24T06:10:15;12.50;73.70
39045;DHT22;52192;52.002;5.956;2023-05-24T06:12:40;12.60;73.60
39045;DHT22;52192;52.002;5.956;2023-05-24T06:15:07;12.70;73.40
39045;DHT22;52192;52.002;5.956;2023-05-24T06:17:33;12.70;73.50
39045;DHT22;52192;52.002;5.956;2023-05-24T06:19:59;12.70;73.40
39045;DHT22;52192;52.002;5.956;2023-05-24T06:22:25;12.70;73.30
39045;DHT22;52192;52.002;5.956;2023-05-24T06:24:52;12.80;73.30
39045;DHT22;52192;52.002;5.956;2023-05-24T06:27:18;12.90;73.40
39045;DHT22;52192;52.002;5.956;2023-05-24T06:29:44;13.00;73.10
39045;DHT22;52192;52.002;5.956;2023-05-24T06:32:10;13.20;72.90
39045;DHT22;52192;52.002;5.956;2023-05-24T06:34:36;13.30;72.70
39045;DHT22;52192;52.002;5.956;2023-05-24T06:37:02;13.40;72.40
39045;DHT22;52192;52.002;5.956;2023-05-24T06:39:28;13.50;72.10
39045;DHT22;52192;52.002;5.956;2023-05-24T06:41:54;13.40;72.10
39045;DHT22;52192;52.002;5.956;2023-05-24T06:44:19;13.40;72.20
39045;DHT22;52192;52.002;5.956;2023-05-24T06:46:47;13.40;72.30
39045;DHT22;52192;52.002;5.956;2023-05-24T06:49:13;13.40;72.40
39045;DHT22;52192;52.002;5.956;2023-05-24T06:51:39;13.40;72.40
39045;DHT22;52192;52.002;5.956;2023-05-24T06:54:04;13.50;72.30
39045;DHT22;52192;52.002;5.956;2023-05-24T06:56:31;13.50;72.50
39045;DHT22;52192;52.002;5.956;2023-05-24T06:58:58;13.50;73.00
39045;DHT22;52192;52.002;5.956;2023-05-24T07:01:23;13.60;72.50
39045;DHT22;52192;52.002;5.956;2023-05-24T07:03:49;13.60;72.40
39045;DHT22;52192;52.002;5.956;2023-05-24T07:06:15;13.70;72.40
39045;DHT22;52192;52.002;5.956;2023-05-24T07:08:42;13.70;72.10
39045;DHT22;52192;52.002;5.956;2023-05-24T07:11:08;13.80;72.00
39045;DHT22;52192;52.002;5.956;2023-05-24T07:13:34;13.80;72.00
39045;DHT22;52192;52.002;5.956;2023-05-24T07:16:00;13.70;72.00
39045;DHT22;52192;52.002;5.956;2023-05-24T07:18:25;13.80;72.00
39045;DHT22;52192;52.002;5.956;2023-05-24T07:20:51;13.80;72.00
39045;DHT22;52192;52.002;5.956;2023-05-24T07:23:17;13.80;72.00
39045;DHT22;52192;52.002;5.956;2023-05-24T07:25:42;13.80;71.80
39045;DHT22;52192;52.002;5.956;2023-05-24T07:28:08;13.80;71.90
39045;DHT22;52192;52.002;5.956;2023-05-24T07:30:34;13.90;71.90
39045;DHT22;52192;52.002;5.956;2023-05-24T07:33:00;14.00;71.90
39045;DHT22;52192;52.002;5.956;2023-05-24T07:35:26;14.20;71.50
39045;DHT22;52192;52.002;5.956;2023-05-24T07:37:53;14.30;71.30
39045;DHT22;52192;52.002;5.956;2023-05-24T07:40:19;14.30;71.10
39045;DHT22;52192;52.002;5.956;2023-05-24T07:42:45;14.40;71.10
39045;DHT22;52192;52.002;5.956;2023-05-24T07:45:12;14.40;71.00
39045;DHT22;52192;52.002;5.956;2023-05-24T07:47:38;14.40;71.00
39045;DHT22;52192;52.002;5.956;2023-05-24T07:50:04;14.40;71.00
39045;DHT22;52192;52.002;5.956;2023-05-24T07:52:30;14.40;70.80
39045;DHT22;52192;52.002;5.956;2023-05-24T07:54:55;14.50;70.80
39045;DHT22;52192;52.002;5.956;2023-05-24T07:57:21;14.50;70.60
39045;DHT22;52192;52.002;5.956;2023-05-24T07:59:47;14.70;70.50
39045;DHT22;52192;52.002;5.956;2023-05-24T08:02:13;14.80;70.10
39045;DHT22;52192;52.002;5.956;2023-05-24T08:04:40;15.00;69.70
39045;DHT22;52192;52.002;5.956;2023-05-24T08:07:06;15.20;69.40
39045;DHT22;52192;52.002;5.956;2023-05-24T08:09:32;15.30;69.30
39045;DHT22;52192;52.002;5.956;2023-05-24T08:12:03;15.40;69.10
39045;DHT22;52192;52.002;5.956;2023-05-24T08:14:29;15.60;68.10
39045;DHT22;52192;52.002;5.956;2023-05-24T08:16:55;15.60;67.70
39045;DHT22;52192;52.002;5.956;2023-05-24T08:19:21;15.70;67.60
39045;DHT22;52192;52.002;5.956;2023-05-24T08:21:48;15.90;67.20
39045;DHT22;52192;52.002;5.956;2023-05-24T08:24:13;16.10;66.60
39045;DHT22;52192;52.002;5.956;2023-05-24T08:26:39;16.20;66.60
39045;DHT22;52192;52.002;5.956;2023-05-24T08:29:05;16.30;66.30
39045;DHT22;52192;52.002;5.956;2023-05-24T08:31:30;16.40;66.10
39045;DHT22;52192;52.002;5.956;2023-05-24T08:33:58;16.50;65.80
39045;DHT22;52192;52.002;5.956;2023-05-24T08:36:23;16.70;65.30
39045;DHT22;52192;52.002;5.956;2023-05-24T08:38:49;16.90;64.90
39045;DHT22;52192;52.002;5.956;2023-05-24T08:41:15;17.10;64.30
39045;DHT22;52192;52.002;5.956;2023-05-24T08:43:41;17.20;62.70
39045;DHT22;52192;52.002;5.956;2023-05-24T08:46:08;17.20;62.80
39045;DHT22;52192;52.002;5.956;2023-05-24T08:48:44;17.30;62.80
39045;DHT22;52192;52.002;5.956;2023-05-24T08:51:10;17.40;62.30
39045;DHT22;52192;52.002;5.956;2023-05-24T08:53:37;17.40;62.30
39045;DHT22;52192;52.002;5.956;2023-05-24T08:56:04;17.60;62.10
39045;DHT22;52192;52.002;5.956;2023-05-24T08:58:30;17.60;61.80
39045;DHT22;52192;52.002;5.956;2023-05-24T09:00:57;17.60;61.70
39045;DHT22;52192;52.002;5.956;2023-05-24T09:03:24;17.50;60.80
39045;DHT22;52192;52.002;5.956;2023-05-24T09:05:51;17.30;61.10
39045;DHT22;52192;52.002;5.956;2023-05-24T09:08:17;17.20;61.20
39045;DHT22;52192;52.002;5.956;2023-05-24T09:10:45;17.20;61.30
39045;DHT22;52192;52.002;5.956;2023-05-24T09:13:14;17.20;61.50
39045;DHT22;52192;52.002;5.956;2023-05-24T09:15:40;17.20;61.20
39045;DHT22;52192;52.002;5.956;2023-05-24T09:18:05;17.10;61.10
39045;DHT22;52192;52.002;5.956;2023-05-24T09:20:31;17.00;61.20
39045;DHT22;52192;52.002;5.956;2023-05-24T09:22:58;17.00;61.10
39045;DHT22;52192;52.002;5.956;2023-05-24T09:25:27;16.90;61.20
39045;DHT22;52192;52.002;5.956;2023-05-24T09:27:54;16.90;61.00
39045;DHT22;52192;52.002;5.956;2023-05-24T09:30:21;16.90;60.40
39045;DHT22;52192;52.002;5.956;2023-05-24T09:32:56;16.90;60.40
39045;DHT22;52192;52.002;5.956;2023-05-24T09:35:23;16.90;60.30
39045;DHT22;52192;52.002;5.956;2023-05-24T09:37:49;17.00;60.50
39045;DHT22;52192;52.002;5.956;2023-05-24T09:40:18;17.10;60.50
39045;DHT22;52192;52.002;5.956;2023-05-24T09:42:44;17.10;60.20
39045;DHT22;52192;52.002;5.956;2023-05-24T09:45:11;17.20;60.30
39045;DHT22;52192;52.002;5.956;2023-05-24T09:47:39;17.30;60.30
39045;DHT22;52192;52.002;5.956;2023-05-24T09:50:15;17.30;60.20
39045;DHT22;52192;52.002;5.956;2023-05-24T09:52:44;17.30;60.00
39045;DHT22;52192;52.002;5.956;2023-05-24T09:55:12;17.40;60.10
39045;DHT22;52192;52.002;5.956;2023-05-24T09:57:37;17.50;60.10
39045;DHT22;52192;52.002;5.956;2023-05-24T10:00:07;17.60;60.00
39045;DHT22;52192;52.002;5.956;2023-05-24T10:02:44;17.60;59.80
39045;DHT22;52192;52.002;5.956;2023-05-24T10:05:12;17.60;59.40
39045;DHT22;52192;52.002;5.956;2023-05-24T10:07:39;17.60;59.50
39045;DHT22;52192;52.002;5.956;2023-05-24T10:10:05;17.50;59.60
39045;DHT22;52192;52.002;5.956;2023-05-24T10:12:33;17.40;59.40
39045;DHT22;52192;52.002;5.956;2023-05-24T10:15:00;17.30;59.60
39045;DHT22;52192;52.002;5.956;2023-05-24T10:17:27;17.10;59.90
39045;DHT22;52192;52.002;5.956;2023-05-24T10:19:53;17.00;59.40
39045;DHT22;52192;52.002;5.956;2023-05-24T10:22:20;16.90;59.90
39045;DHT22;52192;52.002;5.956;2023-05-24T10:24:50;16.80;59.80
39045;DHT22;52192;52.002;5.956;2023-05-24T10:27:26;16.70;60.00
39045;DHT22;52192;52.002;5.956;2023-05-24T10:32:32;16.70;60.10
39045;DHT22;52192;52.002;5.956;2023-05-24T10:35:00;16.70;60.10
39045;DHT22;52192;52.002;5.956;2023-05-24T10:37:26;16.80;60.20
39045;DHT22;52192;52.002;5.956;2023-05-24T10:39:52;16.90;60.10
39045;DHT22;52192;52.002;5.956;2023-05-24T10:42:18;17.00;59.90
39045;DHT22;52192;52.002;5.956;2023-05-24T10:44:44;17.20;59.70
39045;DHT22;52192;52.002;5.956;2023-05-24T10:47:11;17.40;59.10
39045;DHT22;52192;52.002;5.956;2023-05-24T10:49:51;17.60;58.90
39045;DHT22;52192;52.002;5.956;2023-05-24T10:52:19;17.90;58.40
39045;DHT22;52192;52.002;5.956;2023-05-24T10:55:08;18.20;58.00
39045;DHT22;52192;52.002;5.956;2023-05-24T10:57:35;18.70;57.00
39045;DHT22;52192;52.002;5.956;2023-05-24T11:02:49;19.40;54.30
39045;DHT22;52192;52.002;5.956;2023-05-24T11:05:14;19.60;54.60
39045;DHT22;52192;52.002;5.956;2023-05-24T11:07:41;19.90;53.80
39045;DHT22;52192;52.002;5.956;2023-05-24T11:10:15;20.20;53.50
39045;DHT22;52192;52.002;5.956;2023-05-24T11:12:41;20.20;52.80
39045;DHT22;52192;52.002;5.956;2023-05-24T11:15:10;20.20;53.00
39045;DHT22;52192;52.002;5.956;2023-05-24T11:18:15;20.40;53.20
39045;DHT22;52192;52.002;5.956;2023-05-24T11:20:44;20.50;52.20
39045;DHT22;52192;52.002;5.956;2023-05-24T11:23:12;20.40;51.70
39045;DHT22;52192;52.002;5.956;2023-05-24T11:25:38;20.30;52.20
39045;DHT22;52192;52.002;5.956;2023-05-24T11:28:08;20.40;52.50
39045;DHT22;52192;52.002;5.956;2023-05-24T11:30:45;20.50;52.20
39045;DHT22;52192;52.002;5.956;2023-05-24T11:33:19;20.70;52.20
39045;DHT22;52192;52.002;5.956;2023-05-24T11:35:50;20.70;52.40
39045;DHT22;52192;52.002;5.956;2023-05-24T11:38:17;20.60;52.50
39045;DHT22;52192;52.002;5.956;2023-05-24T11:40:46;20.40;52.30
39045;DHT22;52192;52.002;5.956;2023-05-24T11:43:17;20.20;52.50
39045;DHT22;52192;52.002;5.956;2023-05-24T11:45:47;20.00;53.00
39045;DHT22;52192;52.002;5.956;2023-05-24T11:48:14;19.90;52.80
39045;DHT22;52192;52.002;5.956;2023-05-24T11:50:42;19.80;52.90
39045;DHT22;52192;52.002;5.956;2023-05-24T11:53:12;19.80;52.60
39045;DHT22;52192;52.002;5.956;2023-05-24T11:55:38;19.90;53.00
39045;DHT22;52192;52.002;5.956;2023-05-24T11:58:18;19.90;52.60
39045;DHT22;52192;52.002;5.956;2023-05-24T12:00:46;20.10;52.40
39045;DHT22;52192;52.002;5.956;2023-05-24T12:03:12;20.20;51.70
39045;DHT22;52192;52.002;5.956;2023-05-24T12:05:38;20.20;51.50
39045;DHT22;52192;52.002;5.956;2023-05-24T12:08:06;20.20;51.10
39045;DHT22;52192;52.002;5.956;2023-05-24T12:10:40;20.30;51.20
39045;DHT22;52192;52.002;5.956;2023-05-24T12:13:22;20.30;51.00
39045;DHT22;52192;52.002;5.956;2023-05-24T12:15:52;20.30;50.80
39045;DHT22;52192;52.002;5.956;2023-05-24T12:18:19;20.50;51.00
39045;DHT22;52192;52.002;5.956;2023-05-24T12:20:49;20.40;51.10
39045;DHT22;52192;52.002;5.956;2023-05-24T12:23:17;20.30;51.40
39045;DHT22;52192;52.002;5.956;2023-05-24T12:25:43;20.20;51.60
39045;DHT22;52192;52.002;5.956;2023-05-24T12:28:09;19.90;51.50
39045;DHT22;52192;52.002;5.956;2023-05-24T12:30:36;19.90;52.00
39045;DHT22;52192;52.002;5.956;2023-05-24T12:33:02;19.90;52.40
39045;DHT22;52192;52.002;5.956;2023-05-24T12:35:28;20.00;52.20
39045;DHT22;52192;52.002;5.956;2023-05-24T12:37:59;20.20;52.20
39045;DHT22;52192;52.002;5.956;2023-05-24T12:40:25;20.60;51.70
39045;DHT22;52192;52.002;5.956;2023-05-24T12:42:52;21.10;51.10
39045;DHT22;52192;52.002;5.956;2023-05-24T12:45:21;21.40;50.50
39045;DHT22;52192;52.002;5.956;2023-05-24T12:47:52;21.70;49.60
39045;DHT22;52192;52.002;5.956;2023-05-24T12:50:19;21.60;48.80
39045;DHT22;52192;52.002;5.956;2023-05-24T12:52:47;21.50;49.10
39045;DHT22;52192;52.002;5.956;2023-05-24T12:55:13;21.40;48.80
39045;DHT22;52192;52.002;5.956;2023-05-24T12:57:42;21.40;49.00
39045;DHT22;52192;52.002;5.956;2023-05-24T13:00:09;21.50;49.00
39045;DHT22;52192;52.002;5.956;2023-05-24T13:02:36;21.60;47.80
39045;DHT22;52192;52.002;5.956;2023-05-24T13:05:02;21.50;47.50
39045;DHT22;52192;52.002;5.956;2023-05-24T13:07:29;21.20;48.50
39045;DHT22;52192;52.002;5.956;2023-05-24T13:09:55;21.00;49.30
39045;DHT22;52192;52.002;5.956;2023-05-24T13:12:21;20.70;49.80
39045;DHT22;52192;52.002;5.956;2023-05-24T13:14:46;20.40;50.10
39045;DHT22;52192;52.002;5.956;2023-05-24T13:17:12;20.10;51.20
39045;DHT22;52192;52.002;5.956;2023-05-24T13:19:40;19.90;51.20
39045;DHT22;52192;52.002;5.956;2023-05-24T13:22:06;19.80;51.40
39045;DHT22;52192;52.002;5.956;2023-05-24T13:24:31;19.80;51.60
39045;DHT22;52192;52.002;5.956;2023-05-24T13:26:57;19.90;51.40
39045;DHT22;52192;52.002;5.956;2023-05-24T13:29:23;19.90;50.60
39045;DHT22;52192;52.002;5.956;2023-05-24T13:31:49;19.90;50.50
39045;DHT22;52192;52.002;5.956;2023-05-24T13:34:17;19.90;50.80
39045;DHT22;52192;52.002;5.956;2023-05-24T13:36:44;20.20;50.10
39045;DHT22;52192;52.002;5.956;2023-05-24T13:39:10;20.50;49.20
39045;DHT22;52192;52.002;5.956;2023-05-24T13:41:36;20.70;48.60
39045;DHT22;52192;52.002;5.956;2023-05-24T13:44:02;20.70;47.60
39045;DHT22;52192;52.002;5.956;2023-05-24T13:46:28;20.70;48.20
39045;DHT22;52192;52.002;5.956;2023-05-24T13:48:54;20.50;48.60
39045;DHT22;52192;52.002;5.956;2023-05-24T13:51:20;20.40;48.90
39045;DHT22;52192;52.002;5.956;2023-05-24T13:53:47;20.20;48.70
39045;DHT22;52192;52.002;5.956;2023-05-24T13:56:13;20.10;48.80
39045;DHT22;52192;52.002;5.956;2023-05-24T13:58:40;20.10;48.80
39045;DHT22;52192;52.002;5.956;2023-05-24T14:01:06;20.00;48.80
39045;DHT22;52192;52.002;5.956;2023-05-24T14:03:32;19.90;49.20
39045;DHT22;52192;52.002;5.956;2023-05-24T14:05:58;19.80;49.50
39045;DHT22;52192;52.002;5.956;2023-05-24T14:08:24;19.70;49.90
39045;DHT22;52192;52.002;5.956;2023-05-24T14:10:50;19.50;50.30
39045;DHT22;52192;52.002;5.956;2023-05-24T14:13:16;19.40;50.60
39045;DHT22;52192;52.002;5.956;2023-05-24T14:15:42;19.20;50.80
39045;DHT22;52192;52.002;5.956;2023-05-24T14:18:09;19.20;51.10
39045;DHT22;52192;52.002;5.956;2023-05-24T14:20:35;19.10;51.20
39045;DHT22;52192;52.002;5.956;2023-05-24T14:23:03;19.10;51.40
39045;DHT22;52192;52.002;5.956;2023-05-24T14:25:29;19.20;51.00
39045;DHT22;52192;52.002;5.956;2023-05-24T14:27:56;19.30;50.20
39045;DHT22;52192;52.002;5.956;2023-05-24T14:30:21;19.30;50.60
39045;DHT22;52192;52.002;5.956;2023-05-24T14:32:47;19.40;50.80
39045;DHT22;52192;52.002;5.956;2023-05-24T14:35:13;19.50;50.90
39045;DHT22;52192;52.002;5.956;2023-05-24T14:37:39;19.50;50.40
39045;DHT22;52192;52.002;5.956;2023-05-24T14:40:05;19.40;51.20
39045;DHT22;52192;52.002;5.956;2023-05-24T14:42:31;19.40;50.90
39045;DHT22;52192;52.002;5.956;2023-05-24T14:44:57;19.30;51.00
39045;DHT22;52192;52.002;5.956;2023-05-24T14:47:22;19.10;51.10
39045;DHT22;52192;52.002;5.956;2023-05-24T14:49:48;19.00;51.30
39045;DHT22;52192;52.002;5.956;2023-05-24T14:52:14;18.90;51.60
39045;DHT22;52192;52.002;5.956;2023-05-24T14:54:40;18.80;52.00
39045;DHT22;52192;52.002;5.956;2023-05-24T14:57:06;18.80;52.20
39045;DHT22;52192;52.002;5.956;2023-05-24T14:59:32;18.80;52.30
39045;DHT22;52192;52.002;5.956;2023-05-24T15:01:58;18.80;52.50
39045;DHT22;52192;52.002;5.956;2023-05-24T15:04:24;18.80;52.60
39045;DHT22;52192;52.002;5.956;2023-05-24T15:06:49;18.80;52.70
39045;DHT22;52192;52.002;5.956;2023-05-24T15:09:15;18.80;52.90
39045;DHT22;52192;52.002;5.956;2023-05-24T15:11:41;18.80;53.10
39045;DHT22;52192;52.002;5.956;2023-05-24T15:14:07;18.80;53.20
39045;DHT22;52192;52.002;5.956;2023-05-24T15:16:32;18.80;53.30
39045;DHT22;52192;52.002;5.956;2023-05-24T15:18:58;18.80;53.30
39045;DHT22;52192;52.002;5.956;2023-05-24T15:21:24;18.90;53.20
39045;DHT22;52192;52.002;5.956;2023-05-24T15:23:49;18.90;53.10
39045;DHT22;52192;52.002;5.956;2023-05-24T15:26:15;18.90;53.10
39045;DHT22;52192;52.002;5.956;2023-05-24T15:28:41;19.00;53.80
39045;DHT22;52192;52.002;5.956;2023-05-24T15:31:06;19.00;53.00
39045;DHT22;52192;52.002;5.956;2023-05-24T15:33:34;19.10;53.00
39045;DHT22;52192;52.002;5.956;2023-05-24T15:36:00;19.20;53.00
39045;DHT22;52192;52.002;5.956;2023-05-24T15:38:25;19.10;52.80
39045;DHT22;52192;52.002;5.956;2023-05-24T15:40:51;19.00;53.00
39045;DHT22;52192;52.002;5.956;2023-05-24T15:43:17;18.90;53.20